Time;durP1;ratioP1;P1;durP2;ratioP2;P2;SDS_P1;SDS_P2;PMS_P1;PMS_P2;Temp;Humidity;BMP_temperature;BMP_pressure;BME280_temperature;BME280_humidity;BME280_pressure;Samples;Min_cycle;Max_cycle;Signal;HPM_P1;HPM_P2
2022/03/01 00:01:42;;;;;;;6.50;3.10;;;;;;;3.83;45.69;101459.72;4463895;32;33887;-87
2022/03/01 00:04:10;;;;;;;7.68;2.97;;;;;;;3.74;45.78;101451.78;4457814;32;34262;-86
2022/03/01 00:06:39;;;;;;;6.60;3.40;;;;;;;3.90;45.34;101460.69;4458167;32;33139;-86
2022/03/01 00:09:06;;;;;;;4.65;2.53;;;;;;;4.00;45.15;101464.28;4466166;31;34344;-87
2022/03/01 00:11:35;;;;;;;3.62;2.15;;;;;;;3.63;45.83;101456.03;4447107;32;32424;-87
2022/03/01 00:14:04;;;;;;;3.20;2.35;;;;;;;3.76;45.67;101460.53;4471313;32;34432;-87
2022/03/01 00:16:32;;;;;;;6.28;2.62;;;;;;;3.92;45.22;101451.13;4456948;32;32661;-87
2022/03/01 00:19:00;;;;;;;3.75;2.25;;;;;;;3.75;45.63;101456.19;4458060;32;33581;-86
2022/03/01 00:21:28;;;;;;;4.18;2.30;;;;;;;3.88;45.17;101451.94;4464891;31;33269;-87
2022/03/01 00:23:57;;;;;;;4.70;2.30;;;;;;;3.85;45.36;101452.81;4452450;32;33448;-86
2022/03/01 00:26:25;;;;;;;3.65;2.33;;;;;;;3.63;45.70;101453.44;4457713;32;32304;-85
2022/03/01 00:28:52;;;;;;;7.22;2.97;;;;;;;3.79;45.38;101450.09;4451493;32;32583;-85
2022/03/01 00:31:20;;;;;;;4.87;2.97;;;;;;;3.83;45.16;101446.66;4464370;31;33820;-86
2022/03/01 00:33:48;;;;;;;4.40;2.67;;;;;;;3.53;46.06;101446.34;4457814;32;33919;-86
2022/03/01 00:36:17;;;;;;;6.80;2.87;;;;;;;3.57;45.85;101454.25;4464722;32;34020;-86
2022/03/01 00:38:44;;;;;;;3.85;2.33;;;;;;;3.59;45.69;101449.03;4458542;32;34547;-86
2022/03/01 00:41:13;;;;;;;4.82;2.65;;;;;;;3.72;45.21;101447.44;4465861;32;33039;-86
2022/03/01 00:43:40;;;;;;;3.22;2.10;;;;;;;3.44;46.30;101444.50;4459083;32;33710;-86
2022/03/01 00:46:08;;;;;;;2.80;2.40;;;;;;;3.28;46.73;101450.41;4459386;32;34094;-85
2022/03/01 00:48:36;;;;;;;3.20;2.30;;;;;;;3.44;45.88;101447.13;4451786;32;33520;-86
2022/03/01 00:51:04;;;;;;;2.62;2.35;;;;;;;3.52;45.86;101444.59;4454073;32;32474;-86
2022/03/01 00:53:32;;;;;;;3.95;2.53;;;;;;;3.64;45.43;101442.12;4445999;32;33696;-86
2022/03/01 00:56:04;;;;;;;3.83;2.75;;;;;;;3.81;45.09;101453.63;4458342;32;33406;-86
2022/03/01 00:58:32;;;;;;;5.50;3.20;;;;;;;3.53;45.49;101443.75;4472227;32;34214;-86
2022/03/01 01:01:00;;;;;;;4.07;1.77;;;;;;;3.44;46.07;101438.41;4459360;32;32923;-86
2022/03/01 01:03:27;;;;;;;4.50;2.30;;;;;;;3.81;45.07;101437.94;4470703;32;33460;-86
2022/03/01 01:05:55;;;;;;;2.72;2.30;;;;;;;3.65;45.26;101433.41;4471412;32;32665;-86
2022/03/01 01:08:23;;;;;;;5.55;2.42;;;;;;;3.49;45.63;101439.34;4457518;31;32628;-87
2022/03/01 01:10:51;;;;;;;6.40;2.05;;;;;;;3.78;45.06;101437.03;4460833;32;32671;-87
2022/03/01 01:13:19;;;;;;;6.03;3.12;;;;;;;3.74;44.80;101430.03;4464824;31;33252;-87
2022/03/01 01:15:47;;;;;;;4.47;2.40;;;;;;;3.89;44.60;101431.91;4471393;32;32630;-87
2022/03/01 01:18:15;;;;;;;3.97;2.33;;;;;;;3.50;45.25;101435.84;4458430;32;33823;-87
2022/03/01 01:20:43;;;;;;;3.67;2.33;;;;;;;3.65;44.98;101429.94;4463679;32;33923;-86
2022/03/01 01:23:13;;;;;;;4.20;3.03;;;;;;;3.80;44.52;101430.09;4451650;31;34282;-87
2022/03/01 01:25:41;;;;;;;5.28;2.65;;;;;;;3.72;44.78;101435.25;4457378;32;33080;-87
2022/03/01 01:28:08;;;;;;;5.10;2.30;;;;;;;3.63;45.05;101442.97;4470648;32;33489;-87
2022/03/01 01:30:37;;;;;;;3.25;2.22;;;;;;;3.62;44.71;101441.22;4470224;31;34583;-86
2022/03/01 01:33:05;;;;;;;3.92;2.60;;;;;;;3.76;44.56;101429.19;4459758;31;34213;-86
2022/03/01 01:35:34;;;;;;;4.12;2.30;;;;;;;3.79;44.39;101439.66;4457705;32;33393;-85
2022/03/01 01:38:03;;;;;;;3.60;2.22;;;;;;;3.95;44.06;101437.22;4459352;31;34148;-86
2022/03/01 01:40:33;;;;;;;3.70;2.10;;;;;;;3.78;44.53;101437.91;4456800;32;33003;-86
2022/03/01 01:43:01;;;;;;;3.87;2.65;;;;;;;3.92;44.19;101448.50;4457801;32;34004;-84
2022/03/01 01:45:29;;;;;;;4.95;2.78;;;;;;;4.07;43.75;101440.81;4466270;32;32427;-85
2022/03/01 01:47:58;;;;;;;7.40;2.00;;;;;;;4.32;43.23;101441.91;4470667;32;33875;-86
2022/03/01 01:50:27;;;;;;;5.35;2.15;;;;;;;4.11;43.96;101436.47;4457319;32;32657;-86
2022/03/01 01:52:56;;;;;;;4.15;2.50;;;;;;;4.27;43.30;101443.63;4467150;32;33883;-87
2022/03/01 01:55:25;;;;;;;5.22;2.10;;;;;;;4.16;43.31;101433.91;4470160;32;31892;-86
2022/03/01 01:57:59;;;;;;;3.45;2.05;;;;;;;4.46;42.51;101430.66;4458221;32;32529;-85
2022/03/01 02:04:12;;;;;;;3.40;2.08;;;;;;;4.08;43.48;101432.12;4484328;32;33367;-85
2022/03/01 02:07:00;;;;;;;5.25;2.20;;;;;;;4.32;42.91;101426.22;4453297;32;31938;-86
2022/03/01 02:09:28;;;;;;;4.07;2.22;;;;;;;4.23;42.67;101430.50;4457272;32;33288;-86
2022/03/01 02:11:56;;;;;;;2.40;1.80;;;;;;;4.27;42.77;101421.78;4470054;32;32610;-85
2022/03/01 02:14:23;;;;;;;5.80;2.22;;;;;;;4.27;42.53;101417.47;4456968;32;32699;-85
2022/03/01 02:16:52;;;;;;;5.72;2.10;;;;;;;4.09;43.05;101422.53;4457883;32;33241;-85
2022/03/01 02:19:20;;;;;;;2.62;1.70;;;;;;;4.15;43.05;101417.34;4470893;32;33873;-84
2022/03/01 02:21:49;;;;;;;4.43;2.40;;;;;;;4.20;42.48;101423.50;4472371;31;33649;-85
2022/03/01 02:24:19;;;;;;;1.98;1.65;;;;;;;4.06;42.99;101417.28;4459531;32;34560;-85
2022/03/01 02:26:46;;;;;;;5.35;2.20;;;;;;;4.16;42.68;101416.47;4470743;32;33130;-85
2022/03/01 02:29:15;;;;;;;3.15;2.00;;;;;;;3.90;43.39;101416.28;4467015;32;32936;-84
2022/03/01 02:31:43;;;;;;;2.62;1.90;;;;;;;4.19;42.49;101421.75;4467168;32;34774;-84
2022/03/01 02:34:10;;;;;;;3.22;1.73;;;;;;;4.16;42.85;101416.47;4458071;32;34261;-84
2022/03/01 02:36:38;;;;;;;4.70;2.12;;;;;;;4.08;42.77;101410.31;4458064;32;32950;-84
2022/03/01 02:39:06;;;;;;;4.32;1.77;;;;;;;4.16;42.36;101413.00;4457939;32;33416;-84
2022/03/01 02:41:41;;;;;;;4.90;1.95;;;;;;;4.23;42.13;101414.81;4470475;32;34730;-85
2022/03/01 02:44:10;;;;;;;5.28;2.17;;;;;;;4.17;42.35;101414.75;4470762;32;33729;-85
2022/03/01 02:46:38;;;;;;;2.95;1.60;;;;;;;4.30;42.16;101406.13;4460608;31;32621;-85
2022/03/01 02:49:07;;;;;;;6.10;2.25;;;;;;;4.37;41.66;101408.81;4473120;31;33628;-85
2022/03/01 02:51:38;;;;;;;3.15;1.90;;;;;;;4.20;42.49;101407.81;4476187;32;34696;-85
2022/03/01 02:54:06;;;;;;;4.10;1.92;;;;;;;4.24;42.45;101416.56;4457700;32;32123;-86
2022/03/01 02:56:34;;;;;;;4.47;1.60;;;;;;;3.97;43.26;101406.72;4475701;32;33276;-84
2022/03/01 02:59:02;;;;;;;5.28;1.80;;;;;;;4.45;41.59;101406.25;4469238;32;33386;-84
2022/03/01 03:01:30;;;;;;;2.20;1.52;;;;;;;4.16;42.38;101411.25;4458017;32;34602;-87
2022/03/01 03:03:59;;;;;;;3.80;2.25;;;;;;;3.76;43.66;101410.91;4457620;32;33912;-86
2022/03/01 03:06:27;;;;;;;4.03;2.08;;;;;;;3.99;43.20;101410.25;4460594;32;33318;-86
2022/03/01 03:08:56;;;;;;;5.37;2.03;;;;;;;3.78;43.55;101405.69;4453057;32;32953;-86
2022/03/01 03:11:23;;;;;;;4.60;2.58;;;;;;;3.75;43.78;101414.38;4458773;32;33517;-86
2022/03/01 03:13:51;;;;;;;3.58;1.77;;;;;;;3.68;43.72;101412.56;4467257;32;33097;-87
2022/03/01 03:16:19;;;;;;;4.43;1.80;;;;;;;3.70;43.53;101402.97;4451064;31;33521;-86
2022/03/01 03:18:46;;;;;;;3.65;2.10;;;;;;;3.72;44.06;101406.50;4446827;32;32278;-87
2022/03/01 03:21:16;;;;;;;2.20;1.77;;;;;;;3.81;44.02;101406.59;4468486;32;33170;-86
2022/03/01 03:23:46;;;;;;;2.45;1.52;;;;;;;3.72;43.70;101410.84;4453003;32;33784;-86
2022/03/01 03:26:13;;;;;;;4.93;1.62;;;;;;;3.90;43.56;101415.41;4458256;32;33624;-86
2022/03/01 03:28:41;;;;;;;5.70;1.60;;;;;;;3.71;43.78;101407.38;4472568;31;33810;-86
2022/03/01 03:31:09;;;;;;;4.18;1.75;;;;;;;3.53;44.29;101410.66;4458820;32;33618;-86
2022/03/01 03:33:36;;;;;;;3.00;1.80;;;;;;;3.41;44.83;101412.25;4459843;32;33947;-86
2022/03/01 03:36:05;;;;;;;2.05;1.60;;;;;;;3.31;45.27;101412.16;4461498;32;33832;-87
2022/03/01 03:38:33;;;;;;;3.47;1.77;;;;;;;3.50;44.85;101414.97;4450056;31;32977;-86
2022/03/01 03:41:01;;;;;;;4.53;1.77;;;;;;;3.32;45.12;101421.75;4463823;32;32700;-87
2022/03/01 03:43:28;;;;;;;4.03;2.25;;;;;;;3.23;45.62;101418.12;4458306;32;32788;-87
2022/03/01 03:45:56;;;;;;;3.60;1.92;;;;;;;3.09;46.09;101417.97;4459960;32;32211;-86
2022/03/01 03:48:24;;;;;;;5.90;2.60;;;;;;;3.05;45.70;101418.81;4446693;32;32416;-86
2022/03/01 03:50:54;;;;;;;3.05;2.10;;;;;;;3.04;46.10;101409.22;4465447;32;33348;-86
2022/03/01 03:53:23;;;;;;;6.03;2.47;;;;;;;3.38;45.21;101414.84;4471128;32;34708;-86
2022/03/01 03:55:50;;;;;;;6.53;3.10;;;;;;;2.94;46.59;101420.37;4452852;32;32491;-86
2022/03/01 03:58:18;;;;;;;5.82;2.92;;;;;;;2.87;46.81;101422.03;4459297;32;34344;-88
2022/03/01 04:00:46;;;;;;;6.00;3.37;;;;;;;2.70;47.25;101419.19;4471120;32;34433;-86
2022/03/01 04:03:14;;;;;;;5.12;2.67;;;;;;;3.05;46.39;101422.28;4466826;31;33061;-86
2022/03/01 04:05:42;;;;;;;9.05;2.70;;;;;;;3.14;46.20;101418.91;4458978;32;33855;-86
2022/03/01 04:08:13;;;;;;;4.37;2.10;;;;;;;2.90;46.71;101421.22;4473771;32;33868;-86
2022/03/01 04:10:41;;;;;;;5.70;2.58;;;;;;;3.17;46.01;101418.06;4473357;32;33882;-86
2022/03/01 04:13:09;;;;;;;6.25;2.78;;;;;;;3.12;46.56;101423.22;4459084;32;33325;-86
2022/03/01 04:15:37;;;;;;;3.65;2.30;;;;;;;2.05;49.50;101421.66;4470564;32;33307;-86
2022/03/01 04:18:06;;;;;;;5.45;2.78;;;;;;;2.54;48.43;101427.66;4452124;31;35192;-86
2022/03/01 04:20:33;;;;;;;3.87;1.95;;;;;;;2.94;47.45;101422.97;4466518;32;34393;-85
2022/03/01 04:23:02;;;;;;;5.20;2.97;;;;;;;2.39;48.72;101417.84;4458019;32;33698;-85
2022/03/01 04:25:31;;;;;;;8.32;2.90;;;;;;;2.44;48.77;101423.16;4459300;31;33914;-86
2022/03/01 04:27:58;;;;;;;5.03;3.35;;;;;;;2.58;48.55;101432.06;4479557;32;34315;-85
2022/03/01 04:30:27;;;;;;;6.95;2.58;;;;;;;1.87;50.40;101436.97;4457363;32;33365;-85
2022/03/01 04:32:58;;;;;;;5.50;2.80;;;;;;;2.17;49.38;101424.44;4467389;32;33443;-85
2022/03/01 04:35:27;;;;;;;6.65;2.03;;;;;;;2.03;50.11;101421.59;4457881;32;33081;-85
2022/03/01 04:37:55;;;;;;;3.87;2.85;;;;;;;2.20;49.65;101421.91;4469696;32;32427;-85
2022/03/01 04:40:24;;;;;;;5.25;2.65;;;;;;;2.51;48.86;101419.75;4470744;32;34775;-85
2022/03/01 04:42:52;;;;;;;5.22;2.55;;;;;;;1.99;49.95;101426.75;4465832;31;33454;-85
2022/03/01 04:45:19;;;;;;;4.80;2.58;;;;;;;2.32;49.29;101431.62;4447454;32;32712;-86
2022/03/01 04:47:47;;;;;;;3.85;2.00;;;;;;;2.28;49.32;101425.53;4470500;32;33909;-86
2022/03/01 04:50:15;;;;;;;3.42;1.98;;;;;;;2.04;50.16;101427.69;4457584;32;32972;-86
2022/03/01 04:52:43;;;;;;;4.50;2.80;;;;;;;2.13;49.86;101430.47;4470858;32;33837;-86
2022/03/01 04:55:13;;;;;;;4.87;2.17;;;;;;;2.43;49.14;101429.22;4465837;31;33029;-86
2022/03/01 04:57:41;;;;;;;5.60;3.05;;;;;;;1.82;50.67;101428.19;4463287;32;34126;-86
2022/03/01 05:00:10;;;;;;;5.65;2.35;;;;;;;2.06;50.41;101423.41;4452080;32;33526;-86
2022/03/01 05:02:47;;;;;;;7.53;2.45;;;;;;;2.17;50.09;101426.19;4457720;31;34892;-86
2022/03/01 05:05:15;;;;;;;4.03;2.20;;;;;;;1.73;51.33;101428.91;4470455;32;32740;-87
2022/03/01 05:07:46;;;;;;;5.30;1.75;;;;;;;1.96;50.78;101418.91;4459994;31;33531;-85
2022/03/01 05:10:19;;;;;;;3.78;2.33;;;;;;;1.88;50.52;101423.09;4462194;32;33928;-85
2022/03/01 05:12:55;;;;;;;5.05;2.78;;;;;;;1.93;50.81;101422.31;4449600;31;33140;-85
2022/03/01 05:15:24;;;;;;;3.85;2.03;;;;;;;1.92;50.65;101415.34;4458498;32;33276;-85
2022/03/01 05:17:53;;;;;;;9.38;2.47;;;;;;;2.13;50.09;101420.03;4459660;31;33799;-85
2022/03/01 05:20:21;;;;;;;7.25;2.62;;;;;;;2.21;49.82;101418.44;4462015;31;33027;-85
2022/03/01 05:22:49;;;;;;;5.95;2.90;;;;;;;2.10;49.99;101413.91;4463041;31;32943;-85
2022/03/01 05:25:18;;;;;;;5.68;2.50;;;;;;;2.03;50.13;101415.53;4461902;32;32397;-85
2022/03/01 05:27:48;;;;;;;3.67;2.92;;;;;;;2.08;49.99;101415.59;4449653;32;32770;-85
2022/03/01 05:30:17;;;;;;;4.25;2.33;;;;;;;2.09;49.87;101418.25;4458284;32;33753;-86
2022/03/01 05:32:46;;;;;;;5.53;2.97;;;;;;;2.20;49.70;101421.03;4460478;31;34159;-86
2022/03/01 05:35:15;;;;;;;7.47;3.20;;;;;;;2.19;49.58;101419.28;4458328;32;33693;-86
2022/03/01 05:37:43;;;;;;;10.80;2.90;;;;;;;2.08;50.14;101424.28;4471066;32;33505;-85
2022/03/01 05:40:14;;;;;;;11.00;4.43;;;;;;;2.16;50.11;101417.50;4464643;31;33326;-84
2022/03/01 05:42:41;;;;;;;4.12;2.37;;;;;;;1.92;50.33;101419.69;4469055;31;33748;-85
2022/03/01 05:45:11;;;;;;;4.43;2.60;;;;;;;1.78;50.90;101420.31;4476668;32;33768;-84
2022/03/01 05:47:40;;;;;;;7.15;3.12;;;;;;;2.03;50.08;101413.78;4467207;31;33594;-86
2022/03/01 05:50:09;;;;;;;11.45;2.90;;;;;;;1.72;50.91;101415.00;4465706;31;33776;-85
2022/03/01 05:52:37;;;;;;;6.05;2.33;;;;;;;1.40;51.97;101418.72;4453650;32;32988;-86
2022/03/01 05:55:07;;;;;;;8.98;2.80;;;;;;;1.91;50.77;101424.03;4467914;32;33469;-86
2022/03/01 05:57:35;;;;;;;6.97;3.37;;;;;;;1.75;51.04;101428.06;4453337;31;32952;-85
2022/03/01 06:00:05;;;;;;;4.95;2.42;;;;;;;1.65;51.33;101427.88;4458696;31;34736;-85
2022/03/01 06:02:39;;;;;;;9.90;3.65;;;;;;;1.38;51.92;101433.44;4468480;31;33715;-86
2022/03/01 06:05:08;;;;;;;5.05;3.00;;;;;;;1.40;51.85;101432.63;4459854;32;32920;-86
2022/03/01 06:07:39;;;;;;;6.50;3.45;;;;;;;1.22;53.04;101435.72;4456205;32;33543;-86
2022/03/01 06:10:07;;;;;;;5.55;3.03;;;;;;;1.78;51.67;101429.84;4464977;31;32591;-86
2022/03/01 06:16:30;;;;;;;10.70;4.05;;;;;;;1.41;53.29;101438.69;4470118;32;32522;-86
2022/03/01 06:18:58;;;;;;;11.65;4.15;;;;;;;1.67;52.59;101442.69;4456098;31;33322;-85
2022/03/01 06:21:26;;;;;;;14.40;3.70;;;;;;;1.51;53.35;101440.63;4483468;32;33712;-86
2022/03/01 06:23:55;;;;;;;7.65;3.25;;;;;;;1.84;52.84;101437.78;4471062;31;34512;-86
2022/03/01 06:26:23;;;;;;;11.38;3.37;;;;;;;1.72;52.64;101438.44;4470507;32;33995;-87
2022/03/01 06:28:51;;;;;;;12.27;3.33;;;;;;;2.17;51.48;101437.47;4471168;32;33347;-86
2022/03/01 06:31:19;;;;;;;7.32;4.50;;;;;;;2.31;51.08;101435.09;4461233;32;33825;-86
2022/03/01 06:33:46;;;;;;;9.32;3.20;;;;;;;2.16;51.82;101427.91;4469124;31;33613;-85
2022/03/01 06:36:14;;;;;;;12.05;4.12;;;;;;;2.11;52.16;101426.97;4457329;31;33359;-85
2022/03/01 06:38:42;;;;;;;13.02;4.18;;;;;;;2.44;51.24;101417.94;4468560;32;33717;-85
2022/03/01 06:41:12;;;;;;;13.85;4.30;;;;;;;2.85;50.56;101430.69;4471964;32;34386;-86
2022/03/01 06:43:40;;;;;;;7.70;3.30;;;;;;;2.77;50.52;101428.84;4464730;32;32956;-86
2022/03/01 06:46:08;;;;;;;7.85;3.62;;;;;;;2.78;49.76;101425.38;4470800;32;33187;-86
2022/03/01 06:48:36;;;;;;;8.38;4.82;;;;;;;3.03;49.35;101423.09;4487295;31;34180;-86
2022/03/01 06:51:05;;;;;;;6.72;4.10;;;;;;;2.89;49.78;101424.66;4471249;31;34730;-86
2022/03/01 06:53:33;;;;;;;6.93;2.62;;;;;;;3.04;49.50;101430.09;4458259;32;33925;-86
2022/03/01 06:56:01;;;;;;;3.83;2.40;;;;;;;3.50;47.27;101422.81;4458230;32;32155;-86
2022/03/01 06:58:29;;;;;;;4.50;2.65;;;;;;;3.55;46.72;101428.94;4472669;31;33866;-86
2022/03/01 07:01:00;;;;;;;5.95;2.47;;;;;;;3.92;46.11;101424.97;4450210;32;32523;-86
2022/03/01 07:03:29;;;;;;;2.37;2.17;;;;;;;4.12;45.38;101414.69;4471120;32;33931;-87
2022/03/01 07:05:56;;;;;;;5.75;2.08;;;;;;;4.46;43.98;101407.97;4471166;32;34054;-87
2022/03/01 07:08:25;;;;;;;2.58;1.50;;;;;;;4.44;43.35;101409.72;4470501;32;33399;-87
2022/03/01 07:10:53;;;;;;;1.65;1.25;;;;;;;4.58;42.36;101404.59;4459364;32;34668;-87
2022/03/01 07:13:21;;;;;;;3.53;1.40;;;;;;;4.77;41.52;101398.59;4463923;32;33017;-87
2022/03/01 07:15:48;;;;;;;2.62;1.15;;;;;;;5.03;40.30;101400.47;4473766;32;31860;-86
2022/03/01 07:18:17;;;;;;;3.10;1.35;;;;;;;5.04;40.64;101392.63;4463519;31;33842;-86
2022/03/01 07:20:45;;;;;;;1.58;1.00;;;;;;;5.11;39.29;101393.53;4473524;32;33321;-86
2022/03/01 07:23:13;;;;;;;8.00;1.25;;;;;;;4.96;39.47;101388.22;4456010;32;33248;-86
2022/03/01 07:25:44;;;;;;;6.97;2.03;;;;;;;4.97;39.73;101385.59;4471639;31;32307;-86
2022/03/01 07:28:11;;;;;;;2.20;1.05;;;;;;;5.11;39.16;101383.06;4459166;32;33174;-86
2022/03/01 07:30:39;;;;;;;6.03;1.75;;;;;;;5.31;38.43;101378.75;4448525;32;33078;-86
2022/03/01 07:33:07;;;;;;;2.42;1.50;;;;;;;5.38;38.30;101372.66;4474912;31;32188;-86
2022/03/01 07:35:34;;;;;;;1.73;1.23;;;;;;;5.51;37.85;101376.22;4452157;32;32851;-86
2022/03/01 07:38:02;;;;;;;2.92;0.98;;;;;;;5.59;37.93;101373.59;4452802;32;33329;-86
2022/03/01 07:40:30;;;;;;;3.10;1.62;;;;;;;5.65;37.33;101373.63;4464628;31;34897;-86
2022/03/01 07:42:57;;;;;;;1.45;0.88;;;;;;;5.46;36.99;101385.81;4485695;32;33559;-86
2022/03/01 07:45:25;;;;;;;2.22;1.23;;;;;;;5.53;37.84;101378.81;4475046;31;31621;-86
2022/03/01 07:47:53;;;;;;;3.03;1.10;;;;;;;5.99;36.69;101366.69;4447123;32;32332;-86
2022/03/01 07:50:21;;;;;;;6.57;1.52;;;;;;;5.91;37.03;101376.25;4474148;32;34756;-86
2022/03/01 07:52:51;;;;;;;1.55;0.82;;;;;;;5.60;36.19;101372.69;4461342;31;32472;-86
2022/03/01 07:55:20;;;;;;;2.47;0.80;;;;;;;5.31;37.45;101390.97;4476317;32;33370;-86
2022/03/01 07:57:50;;;;;;;2.40;1.23;;;;;;;5.43;36.95;101380.53;4447978;32;32909;-86
2022/03/01 08:00:19;;;;;;;3.80;1.35;;;;;;;5.35;36.82;101371.78;4466595;31;33490;-86
2022/03/01 08:02:47;;;;;;;1.70;1.30;;;;;;;5.94;36.77;101376.28;4472112;32;33560;-86
2022/03/01 08:05:15;;;;;;;2.05;1.30;;;;;;;6.43;34.78;101373.63;4459162;32;32373;-86
2022/03/01 08:07:49;;;;;;;1.20;0.80;;;;;;;5.87;36.28;101380.59;4461640;31;33514;-86
2022/03/01 08:10:17;;;;;;;4.05;0.80;;;;;;;6.00;36.01;101367.56;4458604;31;34358;-86
2022/03/01 08:16:29;;;;;;;2.75;0.80;;;;;;;6.19;35.24;101369.28;4486431;32;33982;-86
2022/03/01 08:18:56;;;;;;;1.45;0.85;;;;;;;6.22;34.98;101373.66;4464310;32;34083;-85
2022/03/01 08:22:03;;;;;;;0.80;0.52;;;;;;;6.40;35.11;101379.75;4458875;32;33129;-86
2022/03/01 08:24:31;;;;;;;5.12;0.82;;;;;;;6.23;34.83;101376.28;4471987;32;34043;-87
2022/03/01 08:26:59;;;;;;;0.95;0.82;;;;;;;6.13;34.99;101379.78;4467754;32;33673;-86
2022/03/01 08:29:29;;;;;;;2.37;1.00;;;;;;;6.34;35.00;101371.03;4454465;32;32910;-85
2022/03/01 08:31:57;;;;;;;2.47;1.00;;;;;;;6.44;34.10;101375.38;4459279;32;32891;-86
2022/03/01 08:34:25;;;;;;;6.32;1.33;;;;;;;6.57;34.29;101373.59;4448062;32;33697;-86
2022/03/01 08:36:53;;;;;;;7.53;1.23;;;;;;;6.29;34.89;101381.53;4454815;31;33307;-86
2022/03/01 08:39:21;;;;;;;2.50;0.75;;;;;;;6.28;34.22;101382.41;4472933;32;33618;-86
2022/03/01 08:41:53;;;;;;;1.15;0.88;;;;;;;6.74;32.75;101384.06;4489906;31;34127;-86
2022/03/01 08:44:22;;;;;;;2.30;0.75;;;;;;;6.32;33.29;101371.03;4450970;31;34020;-87
2022/03/01 08:46:51;;;;;;;1.70;0.73;;;;;;;6.54;34.25;101365.72;4464721;31;33182;-86
2022/03/01 08:49:19;;;;;;;1.02;0.80;;;;;;;6.96;33.55;101363.88;4453373;32;32436;-86
2022/03/01 08:51:48;;;;;;;3.70;1.37;;;;;;;6.64;32.09;101362.22;4461725;31;33138;-86
2022/03/01 08:54:17;;;;;;;2.35;1.12;;;;;;;7.10;31.85;101357.66;4474248;31;33187;-86
2022/03/01 08:56:46;;;;;;;2.78;0.80;;;;;;;6.85;32.14;101361.28;4472171;32;34125;-86
2022/03/01 08:59:17;;;;;;;1.75;0.95;;;;;;;6.82;32.59;101351.66;4459724;32;33586;-86
2022/03/01 09:01:47;;;;;;;5.97;1.98;;;;;;;6.97;31.73;101355.09;4452451;31;32923;-85
2022/03/01 09:04:15;;;;;;;1.85;0.90;;;;;;;7.09;31.83;101350.69;4484759;32;33742;-86
2022/03/01 09:06:44;;;;;;;3.70;1.02;;;;;;;6.87;32.47;101344.63;4471069;32;33180;-86
2022/03/01 09:09:11;;;;;;;1.30;0.80;;;;;;;6.48;32.05;101356.13;4467346;32;32939;-87
2022/03/01 09:11:40;;;;;;;2.33;0.93;;;;;;;7.00;31.66;101347.22;4446312;32;33100;-86
2022/03/01 09:14:07;;;;;;;2.00;1.00;;;;;;;7.03;31.07;101344.59;4458578;32;33445;-86
2022/03/01 09:16:35;;;;;;;3.95;0.93;;;;;;;7.37;31.53;101340.03;4446197;32;32418;-87
2022/03/01 09:19:03;;;;;;;2.03;0.77;;;;;;;7.64;30.52;101334.59;4460846;31;33669;-87
2022/03/01 09:21:31;;;;;;;1.70;0.90;;;;;;;7.96;31.14;101333.44;4457975;32;32749;-86
2022/03/01 09:23:58;;;;;;;1.77;0.70;;;;;;;7.71;30.39;101340.66;4461199;31;34261;-83
2022/03/01 09:26:26;;;;;;;3.72;0.95;;;;;;;7.65;30.97;101338.09;4473001;32;33030;-83
2022/03/01 09:28:54;;;;;;;3.58;1.25;;;;;;;7.94;29.79;101336.09;4472922;32;34306;-83
2022/03/01 09:31:21;;;;;;;2.12;0.90;;;;;;;7.85;30.17;101330.91;4459603;31;33089;-83
2022/03/01 09:33:49;;;;;;;1.87;1.02;;;;;;;8.41;28.67;101316.41;4473849;32;33947;-83
2022/03/01 09:36:41;;;;;;;2.45;1.05;;;;;;;8.37;29.62;101317.31;4458520;32;32706;-83
2022/03/01 09:39:08;;;;;;;2.60;0.82;;;;;;;8.58;29.17;101312.69;4468816;31;32356;-83
2022/03/01 09:41:37;;;;;;;2.12;0.90;;;;;;;8.37;29.04;101305.91;4455599;32;33008;-83
2022/03/01 09:44:05;;;;;;;1.35;0.68;;;;;;;8.66;29.12;101300.31;4459084;32;34190;-83
2022/03/01 09:46:38;;;;;;;4.65;1.12;;;;;;;8.59;27.91;101301.28;4451017;31;33282;-83
2022/03/01 09:49:07;;;;;;;1.77;0.80;;;;;;;9.14;27.92;101284.78;4463388;31;32892;-83
2022/03/01 09:51:36;;;;;;;2.42;0.88;;;;;;;8.96;27.35;101289.38;4470683;32;34508;-83
2022/03/01 09:54:04;;;;;;;2.17;0.90;;;;;;;8.96;27.04;101291.16;4458193;32;33725;-83
2022/03/01 09:56:32;;;;;;;2.47;1.10;;;;;;;8.85;27.00;101288.66;4469067;31;34091;-86
2022/03/01 09:59:06;;;;;;;1.05;0.60;;;;;;;8.57;27.46;101280.22;4469558;32;32995;-84
2022/03/01 10:01:36;;;;;;;2.83;1.00;;;;;;;9.07;27.61;101277.81;4470755;32;34809;-84
2022/03/01 10:04:09;;;;;;;3.83;0.85;;;;;;;9.20;26.42;101271.50;4445152;31;33819;-84
2022/03/01 10:06:46;;;;;;;2.75;0.95;;;;;;;9.26;27.44;101265.25;4453274;32;32719;-84
2022/03/01 10:09:17;;;;;;;2.33;0.98;;;;;;;9.42;26.42;101256.25;4474534;31;34488;-84
2022/03/01 10:11:48;;;;;;;2.20;1.10;;;;;;;9.32;26.55;101260.78;4457396;32;33038;-84
2022/03/01 10:14:31;;;;;;;11.88;1.37;;;;;;;8.47;26.69;101257.53;4466774;31;32868;-84
2022/03/01 10:17:11;;;;;;;1.70;1.02;;;;;;;8.97;27.17;101263.91;4477338;32;34045;-84
2022/03/01 10:19:43;;;;;;;1.50;1.00;;;;;;;9.07;27.32;101254.13;4463540;31;33889;-84
2022/03/01 10:22:11;;;;;;;2.53;0.90;;;;;;;9.34;25.67;101255.47;4470303;32;33831;-84
2022/03/01 10:24:48;;;;;;;2.25;1.00;;;;;;;8.71;26.04;101248.47;4467555;31;32923;-84
2022/03/01 10:27:27;;;;;;;1.70;1.10;;;;;;;8.82;26.19;101246.56;4469939;32;33360;-84
2022/03/01 10:29:54;;;;;;;2.12;0.90;;;;;;;9.09;26.12;101247.06;4460190;32;33631;-84
2022/03/01 10:32:24;;;;;;;2.03;0.93;;;;;;;9.02;26.04;101237.50;4471485;32;34505;-84
2022/03/01 10:35:16;;;;;;;3.50;1.73;;;;;;;8.89;25.52;101229.78;4470220;32;34696;-84
2022/03/01 10:37:49;;;;;;;3.70;0.90;;;;;;;9.41;25.97;101225.50;4465944;31;33428;-84
2022/03/01 10:40:17;;;;;;;2.35;1.00;;;;;;;9.42;24.98;101228.09;4470718;31;33793;-84
2022/03/01 10:43:09;;;;;;;3.22;1.58;;;;;;;9.91;24.53;101216.69;4471007;32;33878;-84
2022/03/01 10:45:51;;;;;;;2.97;1.05;;;;;;;10.21;24.84;101206.47;4464115;32;32533;-84
2022/03/01 10:48:37;;;;;;;4.57;1.67;;;;;;;10.19;28.69;101208.25;4471057;32;33732;-84
2022/03/01 10:51:10;;;;;;;3.50;1.48;;;;;;;10.80;24.11;101208.78;4470417;32;33594;-83
2022/03/01 10:53:41;;;;;;;3.47;1.37;;;;;;;10.30;23.93;101202.78;4458201;32;33737;-85
2022/03/01 10:56:11;;;;;;;5.07;1.10;;;;;;;10.19;26.77;101189.78;4460544;32;33828;-85
2022/03/01 10:58:42;;;;;;;2.95;1.17;;;;;;;10.28;23.79;101187.00;4463333;32;32726;-85
2022/03/01 11:01:10;;;;;;;1.67;0.90;;;;;;;10.86;23.12;101177.81;4472213;31;33455;-85
2022/03/01 11:03:39;;;;;;;1.52;0.80;;;;;;;10.73;22.19;101179.00;4459326;32;33868;-85
2022/03/01 11:06:10;;;;;;;1.70;0.73;;;;;;;11.10;21.71;101164.91;4465492;32;32411;-85
2022/03/01 11:08:39;;;;;;;3.33;1.00;;;;;;;10.98;21.36;101163.47;4463302;32;33028;-85
2022/03/01 11:11:09;;;;;;;4.43;1.23;;;;;;;10.80;22.70;101159.47;4457670;31;33602;-85
2022/03/01 11:13:39;;;;;;;2.15;0.85;;;;;;;10.99;21.80;101152.84;4456548;32;33114;-85
2022/03/01 11:16:32;;;;;;;1.77;0.90;;;;;;;11.31;21.59;101147.69;4456083;32;33496;-84
2022/03/01 11:19:03;;;;;;;;;;;;;;;11.10;22.26;101151.72;4469822;31;32655;-84
2022/03/01 11:21:33;;;;;;;1.90;1.00;;;;;;;11.05;22.00;101143.03;4454941;32;34330;-85
2022/03/01 11:24:01;;;;;;;1.12;1.02;;;;;;;11.18;22.16;101134.75;4470410;32;33250;-85
2022/03/01 11:26:37;;;;;;;2.03;1.25;;;;;;;11.45;22.09;101127.91;4458620;31;32954;-84
2022/03/01 11:29:10;;;;;;;1.80;1.27;;;;;;;11.25;22.00;101127.53;4463987;32;33187;-85
2022/03/01 11:31:39;;;;;;;3.42;1.25;;;;;;;10.81;24.22;101124.19;4450176;32;32424;-85
2022/03/01 11:34:13;;;;;;;4.97;1.20;;;;;;;11.23;21.57;101113.50;4453137;32;33214;-85
2022/03/01 11:36:49;;;;;;;2.40;1.08;;;;;;;11.40;21.46;101113.06;4458962;32;32808;-85
2022/03/01 11:39:29;;;;;;;1.95;0.93;;;;;;;11.34;19.82;101100.84;4472072;32;32955;-85
2022/03/01 11:42:08;;;;;;;4.55;1.02;;;;;;;11.45;20.31;101093.53;4457751;32;32397;-84
2022/03/01 11:44:40;;;;;;;1.62;0.82;;;;;;;11.67;20.23;101093.78;4457930;31;33837;-84
2022/03/01 11:47:11;;;;;;;1.85;1.02;;;;;;;11.73;20.68;101087.47;4460252;32;33008;-84
2022/03/01 11:49:57;;;;;;;1.77;1.10;;;;;;;11.45;19.31;101090.00;4469476;32;32380;-84
2022/03/01 11:52:31;;;;;;;2.17;1.20;;;;;;;11.18;19.72;101088.94;4460559;32;33830;-84
2022/03/01 11:55:01;;;;;;;1.35;0.70;;;;;;;11.18;19.79;101086.31;4462261;32;32819;-84